Flight Track Log - Related Links

Times and Time Zones

All times are in EDT time to prevent confusion due to time zone crossing. See the AAL2360 flight status page for this flight to view local times or setup timezone preferences in your user account.

Time Position Orientation Groundspeed Altitude Reporting Facility
EDT Latitude Longitude Course Direction KTS MPH feet Rate Location/Type
Fri 03:44:22 PM 32.8833 -97.0333 357° North 174 200 1,000  Level Dallas / Fort Worth TRACON
Fri 03:44:46 PM 32.8667 -97.0333 180° South 188 216 2,000 2,143 Climbing Dallas / Fort Worth TRACON
Fri 03:45:46 PM 32.8000 -97.0000 157° South 245 282 4,000 2,450 Climbing Dallas / Fort Worth TRACON
Fri 03:46:46 PM 32.7667 -96.9333 121° Southeast 256 295 6,900 2,600 Climbing Dallas / Fort Worth TRACON
Fri 03:47:00 PM 32.9650 -96.8000 North  Level FlightAware Approximate
Fri 03:47:46 PM 32.7667 -96.8500 90° East 289 333 9,200  Level Dallas / Fort Worth TRACON
Fri 03:48:00 PM 33.0825 -96.8011 357° North  Level FlightAware Approximate
Fri 03:48:46 PM 32.8500 -96.8000 27° Northeast 339 390 10,900  Level Dallas / Fort Worth TRACON
Fri 03:49:00 PM 33.1997 -96.8095 357° North  Level FlightAware Approximate
Fri 03:49:47 PM 32.9500 -96.8000 360° North 405 466 12,300  Level Dallas / Fort Worth TRACON
Fri 03:51:25 PM 33.1431 -96.8156 356° North 427 491 15,700 2,127 Climbing Fort Worth Center
Fri 03:52:25 PM 33.2536 -96.8172 359° North 427 491 17,900 2,250 Climbing Fort Worth Center
Fri 03:53:25 PM 33.3936 -96.8239 358° North 439 505 20,200 1,900 Climbing Fort Worth Center
Fri 03:54:25 PM 33.4872 -96.7533 32° Northeast 419 482 21,700 1,600 Climbing Fort Worth Center
Fri 03:55:25 PM 33.5928 -96.6431 41° Northeast 439 505 23,400 1,600 Climbing Fort Worth Center
Fri 03:56:25 PM 33.7031 -96.5519 34° Northeast 471 542 24,900 1,600 Climbing Fort Worth Center
Fri 03:57:25 PM 33.8047 -96.4686 34° Northeast 477 549 26,600 1,650 Climbing Fort Worth Center
Fri 03:58:25 PM 33.9208 -96.3747 34° Northeast 472 543 28,200 1,450 Climbing Fort Worth Center
Fri 03:59:25 PM 34.0306 -96.2808 35° Northeast 472 543 29,500 1,450 Climbing Fort Worth Center
Fri 04:00:25 PM 34.1403 -96.1889 35° Northeast 472 543 31,100 1,600 Climbing Fort Worth Center
Fri 04:01:25 PM 34.2436 -96.0994 36° Northeast 472 543 32,700 950 Climbing Fort Worth Center
Fri 04:02:25 PM 34.3472 -96.0150 34° Northeast 467 537 33,000 150 Climbing Fort Worth Center
Fri 04:03:25 PM 34.4547 -95.9275 34° Northeast 467 537 33,000  Level Fort Worth Center
Fri 04:04:25 PM 34.5578 -95.8400 35° Northeast 461 531 33,000  Level Fort Worth Center
Fri 04:05:25 PM 34.6631 -95.7522 34° Northeast 461 531 33,000  Level Fort Worth Center
Fri 04:06:25 PM 34.7642 -95.6669 35° Northeast 456 525 33,000  Level Fort Worth Center
Fri 04:07:25 PM 34.8692 -95.5761 35° Northeast 456 525 33,000  Level Fort Worth Center
Fri 04:09:44 PM 35.1025 -95.3747 35° Northeast 468 539 33,000  Level Memphis Center
Fri 04:10:44 PM 35.2061 -95.2869 35° Northeast 463 533 33,000  Level Memphis Center
Fri 04:11:44 PM 35.3056 -95.1986 36° Northeast 457 526 33,000  Level Memphis Center
Fri 04:12:44 PM 35.4092 -95.1081 35° Northeast 452 520 33,000  Level Memphis Center
Fri 04:13:44 PM 35.5128 -95.0144 36° Northeast 447 514 33,000  Level Memphis Center
Fri 04:14:44 PM 35.6186 -94.9208 36° Northeast 453 521 33,000  Level Memphis Center
Fri 04:15:44 PM 35.7197 -94.8292 36° Northeast 453 521 33,000  Level Memphis Center
Fri 04:16:44 PM 35.8233 -94.7350 36° Northeast 453 521 33,000  Level Memphis Center
Fri 04:17:44 PM 35.9286 -94.6431 35° Northeast 453 521 33,000  Level Memphis Center
Fri 04:18:44 PM 36.0319 -94.5508 36° Northeast 458 527 33,000  Level Memphis Center
Fri 04:19:44 PM 36.1350 -94.4561 37° Northeast 458 527 33,000  Level Memphis Center
Fri 04:20:07 PM 36.1714 -94.4261 34° Northeast 459 528 33,000  Level Kansas City Center
Fri 04:21:07 PM 36.2747 -94.3314 36° Northeast 462 532 33,000  Level Kansas City Center
Fri 04:22:11 PM 36.3789 -94.2378 36° Northeast 463 533 33,000  Level Kansas City Center
Fri 04:23:11 PM 36.5025 -94.1244 36° Northeast 461 531 33,000  Level Kansas City Center
Fri 04:24:16 PM 36.6053 -94.0308 36° Northeast 458 527 33,000  Level Kansas City Center
Fri 04:25:16 PM 36.7086 -93.9369 36° Northeast 460 529 33,000  Level Kansas City Center
Fri 04:26:18 PM 36.8119 -93.8419 36° Northeast 462 532 33,000  Level Kansas City Center
Fri 04:27:21 PM 36.9186 -93.7400 37° Northeast 457 526 33,000  Level Kansas City Center
Fri 04:28:23 PM 37.0194 -93.6422 38° Northeast 457 526 33,000  Level Kansas City Center
Fri 04:29:26 PM 37.1250 -93.5475 36° Northeast 462 532 33,000  Level Kansas City Center
Fri 04:30:26 PM 37.2278 -93.4522 36° Northeast 460 529 33,000  Level Kansas City Center
Fri 04:31:30 PM 37.3519 -93.3406 36° Northeast 456 525 33,000  Level Kansas City Center
Fri 04:32:31 PM 37.4531 -93.2431 37° Northeast 456 525 33,000  Level Kansas City Center
Fri 04:33:34 PM 37.5572 -93.1481 36° Northeast 459 528 33,000  Level Kansas City Center
Fri 04:34:36 PM 37.6608 -93.0531 36° Northeast 459 528 33,000  Level Kansas City Center
Fri 04:35:36 PM 37.7639 -92.9575 36° Northeast 458 527 33,000  Level Kansas City Center
Fri 04:36:40 PM 37.8669 -92.8611 36° Northeast 458 527 33,000  Level Kansas City Center
Fri 04:37:41 PM 37.9694 -92.7664 36° Northeast 453 521 33,000 -288 Level Kansas City Center
Fri 04:38:45 PM 38.0817 -92.6589 37° Northeast 455 524 32,400 -816 Descending Kansas City Center
Fri 04:39:46 PM 38.1975 -92.5517 36° Northeast 457 526 31,300 -689 Descending Kansas City Center
Fri 04:40:47 PM 38.3028 -92.4508 37° Northeast 463 533 31,000 -144 Descending Kansas City Center
Fri 04:41:51 PM 38.4081 -92.3489 37° Northeast 468 539 31,000  Level Kansas City Center
Fri 04:42:51 PM 38.5117 -92.2500 37° Northeast 465 535 31,000  Level Kansas City Center
Fri 04:43:52 PM 38.6133 -92.1519 37° Northeast 459 528 31,000  Level Kansas City Center
Fri 04:44:56 PM 38.7139 -92.0561 37° Northeast 452 520 31,000  Level Kansas City Center
Fri 04:45:57 PM 38.8111 -91.9628 37° Northeast 442 509 31,000  Level Kansas City Center
Fri 04:47:01 PM 38.9383 -91.8889 24° Northeast 424 488 31,000  Level Kansas City Center
Fri 04:48:01 PM 39.0567 -91.8747 North 426 490 31,000  Level Kansas City Center
Fri 04:49:04 PM 39.1600 -91.7917 32° Northeast 448 516 31,000  Level Kansas City Center
Fri 04:50:05 PM 39.2511 -91.6717 46° Northeast 452 520 31,000  Level Kansas City Center
Fri 04:51:09 PM 39.3411 -91.5567 45° Northeast 453 521 31,000  Level Kansas City Center
Fri 04:52:10 PM 39.4172 -91.4275 53° Northeast 455 524 31,000  Level Kansas City Center
Fri 04:53:11 PM 39.4364 -91.2642 81° East 462 532 31,000  Level Kansas City Center
Fri 04:54:14 PM 39.4528 -91.1006 83° East 460 529 31,000  Level Kansas City Center
Fri 04:55:15 PM 39.4731 -90.9383 81° East 457 526 31,000  Level Kansas City Center
Fri 04:56:17 PM 39.5003 -90.7442 80° East 458 527 31,000  Level Kansas City Center
Fri 04:57:21 PM 39.5783 -90.6225 50° Northeast 453 521 31,000  Level Kansas City Center
Fri 04:58:24 PM 39.6914 -90.5511 26° Northeast 452 520 31,000  Level Kansas City Center
Fri 04:59:25 PM 39.7933 -90.4844 27° Northeast 450 518 31,000  Level Kansas City Center
Fri 05:00:28 PM 39.9269 -90.3992 26° Northeast 445 512 31,000  Level Kansas City Center
Fri 05:01:28 PM 40.0378 -90.3269 27° Northeast 445 512 31,000  Level Kansas City Center
Fri 05:02:33 PM 40.1503 -90.2539 26° Northeast 448 516 31,000 -48 Level Kansas City Center
Fri 05:03:33 PM 40.2636 -90.1806 26° Northeast 453 521 30,900 -496 Descending Kansas City Center
Fri 05:04:34 PM 40.3761 -90.1078 26° Northeast 451 519 30,000 -968 Descending Kansas City Center
Fri 05:05:06 PM 40.4422 -90.0642 27° Northeast 452 520 29,400 -1,021 Descending Chicago Center
Fri 05:06:08 PM 40.5567 -89.9892 26° Northeast 452 520 28,400 -968 Descending Chicago Center
Fri 05:07:10 PM 40.6661 -89.9150 27° Northeast 448 516 27,400 -1,065 Descending Chicago Center
Fri 05:08:12 PM 40.7964 -89.8297 26° Northeast 441 507 26,200 -1,056 Descending Chicago Center
Fri 05:09:15 PM 40.9056 -89.7600 26° Northeast 435 501 25,200 -912 Descending Chicago Center
Fri 05:10:17 PM 40.9994 -89.6972 27° Northeast 426 490 24,300 -532 Descending Chicago Center
Fri 05:11:19 PM 41.1094 -89.5839 38° Northeast 433 498 24,100 -484 Descending Chicago Center
Fri 05:12:21 PM 41.1714 -89.4442 59° Northeast 439 505 23,300 -1,597 Descending Chicago Center
Fri 05:13:23 PM 41.2369 -89.3025 58° Northeast 449 517 20,800 -2,544 Descending Chicago Center
Fri 05:14:26 PM 41.3061 -89.1528 58° Northeast 442 509 18,000 -2,371 Descending Chicago Center
Fri 05:15:27 PM 41.3644 -89.0317 57° Northeast 395 455 15,900 -2,146 Descending Chicago Center
Fri 05:16:29 PM 41.4181 -88.9117 59° Northeast 381 438 13,600 -2,032 Descending Chicago Center
Fri 05:17:31 PM 41.4711 -88.7958 59° Northeast 371 427 11,700 -1,258 Descending Chicago Center
Fri 05:18:33 PM 41.5200 -88.6892 59° Northeast 343 395 11,000 -336 Descending Chicago Center
Fri 05:19:36 PM 41.5656 -88.5736 62° Northeast 298 343 11,000 -480 Level Chicago Center
Fri 05:20:38 PM 41.6044 -88.4764 62° Northeast 296 341 10,000 -1,258 Descending Chicago Center
Fri 05:21:40 PM 41.6542 -88.3886 53° Northeast 297 342 8,400 -1,306 Descending Chicago Center
Fri 05:22:42 PM 41.7044 -88.3031 52° Northeast 293 337 7,300 -677 Descending Chicago Center
Fri 05:23:44 PM 41.7753 -88.2792 14° North 281 323 7,000 -774 Descending Chicago Center
Fri 05:24:46 PM 41.8528 -88.2847 357° North 279 321 5,700 -1,210 Descending Chicago Center
Fri 05:25:48 PM 41.9386 -88.2908 357° North 264 304 4,500 -1,161 Descending Chicago Center

Login

Don't have an account? Register now (free) for customized features, flight alerts, and more!